createdAt,value
2023-01-12T00:01:55.949Z,100657.97
2023-01-12T00:04:22.546Z,100655.50
2023-01-12T00:06:49.133Z,100643.28
2023-01-12T00:09:15.707Z,100650.50
2023-01-12T00:11:42.379Z,100633.59
2023-01-12T00:14:09.441Z,100639.53
2023-01-12T00:16:39.549Z,100629.63
2023-01-12T00:19:12.165Z,100643.47
2023-01-12T00:22:04.544Z,100623.94
2023-01-12T00:24:39.629Z,100626.47
2023-01-12T00:27:08.664Z,100636.25
2023-01-12T00:29:36.310Z,100634.41
2023-01-12T00:32:03.660Z,100632.56
2023-01-12T00:34:30.213Z,100633.28
2023-01-12T00:36:59.519Z,100614.47
2023-01-12T00:39:26.034Z,100631.47
2023-01-12T00:42:10.895Z,100628.22
2023-01-12T00:44:56.061Z,100633.06
2023-01-12T00:47:22.541Z,100626.53
2023-01-12T00:49:49.904Z,100625.69
2023-01-12T00:52:29.786Z,100619.28
2023-01-12T00:54:58.288Z,100620.16
2023-01-12T00:57:24.783Z,100614.06
2023-01-12T00:59:54.904Z,100608.69
2023-01-12T01:02:21.640Z,100613.22
2023-01-12T01:04:48.252Z,100606.84
2023-01-12T01:07:16.083Z,100611.94
2023-01-12T01:09:43.192Z,100598.78
2023-01-12T01:12:10.149Z,100597.47
2023-01-12T01:14:36.628Z,100602.47
2023-01-12T01:17:03.087Z,100597.47
2023-01-12T01:19:29.532Z,100601.31
2023-01-12T01:21:55.999Z,100580.63
2023-01-12T01:24:22.437Z,100566.63
2023-01-12T01:26:50.573Z,100565.66
2023-01-12T01:29:17.115Z,100563.94
2023-01-12T01:31:43.526Z,100586.63
2023-01-12T01:34:09.993Z,100563.44
2023-01-12T01:36:36.391Z,100556.34
2023-01-12T01:39:03.000Z,100555.66
2023-01-12T01:41:33.951Z,100549.97
2023-01-12T01:44:06.642Z,100548.44
2023-01-12T01:46:47.970Z,100548.13
2023-01-12T01:49:37.097Z,100557.50
2023-01-12T01:52:09.347Z,100542.38
2023-01-12T01:54:40.688Z,100550.28
2023-01-12T01:57:09.547Z,100540.69
2023-01-12T01:59:38.327Z,100530.59
2023-01-12T02:02:05.394Z,100538.13
2023-01-12T02:04:32.228Z,100541.53
2023-01-12T02:07:01.329Z,100543.19
2023-01-12T02:09:30.720Z,100535.28
2023-01-12T02:12:15.875Z,100527.06
2023-01-12T02:15:04.144Z,100523.22
2023-01-12T02:17:48.875Z,100513.19
2023-01-12T02:20:34.157Z,100508.97
2023-01-12T02:23:22.005Z,100493.69
2023-01-12T02:26:00.509Z,100509.69
2023-01-12T02:28:51.955Z,100497.06
2023-01-12T02:31:30.317Z,100490.00
2023-01-12T02:34:29.097Z,100503.75
2023-01-12T02:37:21.716Z,100483.69
2023-01-12T02:40:04.732Z,100484.56
2023-01-12T02:42:42.470Z,100471.59
2023-01-12T02:45:27.708Z,100469.34
2023-01-12T02:48:22.020Z,100462.13
2023-01-12T02:50:54.187Z,100469.34
2023-01-12T02:53:24.292Z,100455.38
2023-01-12T02:55:52.168Z,100441.28
2023-01-12T02:58:22.534Z,100440.28
2023-01-12T03:00:54.411Z,100440.16
2023-01-12T03:03:21.983Z,100421.81
2023-01-12T03:05:48.689Z,100430.13
2023-01-12T03:08:23.583Z,100426.59
2023-01-12T03:10:57.027Z,100418.34
2023-01-12T03:13:26.881Z,100415.66
2023-01-12T03:15:55.994Z,100415.34
2023-01-12T03:18:37.946Z,100412.91
2023-01-12T03:21:22.701Z,100409.53
2023-01-12T03:23:55.630Z,100407.53
2023-01-12T03:26:27.772Z,100401.31
2023-01-12T03:29:02.308Z,100391.25
2023-01-12T03:31:28.903Z,100380.13
2023-01-12T03:33:55.764Z,100384.66
2023-01-12T03:36:33.674Z,100377.44
2023-01-12T03:39:14.781Z,100365.66
2023-01-12T03:41:53.368Z,100374.19
2023-01-12T03:44:28.719Z,100365.59
2023-01-12T03:47:01.412Z,100364.44
2023-01-12T03:49:41.371Z,100359.06
2023-01-12T03:52:10.646Z,100358.53
2023-01-12T03:54:39.625Z,100348.78
2023-01-12T03:57:08.929Z,100328.28
2023-01-12T03:59:35.930Z,100322.06
2023-01-12T04:02:03.115Z,100307.28
2023-01-12T04:04:29.676Z,100297.53
2023-01-12T04:06:56.454Z,100272.00
2023-01-12T04:09:25.389Z,100261.41
2023-01-12T04:12:10.468Z,100242.56
2023-01-12T04:14:38.177Z,100231.97
2023-01-12T04:17:05.032Z,100232.97
2023-01-12T04:19:31.554Z,100219.34
2023-01-12T04:22:16.756Z,100211.28
2023-01-12T04:24:43.355Z,100193.81
2023-01-12T04:27:10.110Z,100174.81
2023-01-12T04:29:36.576Z,100173.59
2023-01-12T04:32:04.515Z,100167.22
2023-01-12T04:34:31.013Z,100138.31
2023-01-12T04:36:57.545Z,100125.53
2023-01-12T04:39:24.512Z,100101.84
2023-01-12T04:41:50.933Z,100088.41
2023-01-12T04:44:17.427Z,100084.72
2023-01-12T04:46:43.867Z,100099.53
2023-01-12T04:49:10.337Z,100098.00
2023-01-12T04:51:36.812Z,100105.03
2023-01-12T04:54:03.407Z,100121.19
2023-01-12T04:56:31.227Z,100114.84
2023-01-12T04:59:00.309Z,100105.25
2023-01-12T05:01:29.320Z,100092.13
2023-01-12T05:03:58.050Z,100083.41
2023-01-12T05:06:24.779Z,100083.94
2023-01-12T05:09:09.804Z,100091.34
2023-01-12T05:11:36.241Z,100108.50
2023-01-12T05:14:03.667Z,100080.22
2023-01-12T05:16:30.710Z,100097.53
2023-01-12T05:18:57.313Z,100075.16
2023-01-12T05:21:24.593Z,100065.56
2023-01-12T05:23:54.226Z,100058.50
2023-01-12T05:26:20.902Z,100078.19
2023-01-12T05:28:51.307Z,100084.75
2023-01-12T05:31:19.540Z,100053.63
2023-01-12T05:33:48.135Z,100062.88
2023-01-12T05:36:16.308Z,100069.13
2023-01-12T05:38:43.070Z,100057.00
2023-01-12T05:41:11.883Z,100058.69
2023-01-12T05:43:50.610Z,100064.41
2023-01-12T05:46:29.386Z,100065.91
2023-01-12T05:48:57.630Z,100063.22
2023-01-12T05:51:26.791Z,100047.41
2023-01-12T05:53:54.449Z,100050.78
2023-01-12T05:56:25.725Z,100059.00
2023-01-12T05:58:54.820Z,100046.41
2023-01-12T06:01:22.284Z,100043.06
2023-01-12T06:03:50.688Z,100045.56
2023-01-12T06:06:18.917Z,100042.22
2023-01-12T06:08:45.858Z,100056.31
2023-01-12T06:11:31.768Z,100040.03
2023-01-12T06:13:59.573Z,100046.22
2023-01-12T06:16:27.763Z,100038.53
2023-01-12T06:18:54.565Z,100055.69
2023-01-12T06:21:21.106Z,100047.63
2023-01-12T06:23:47.576Z,100057.69
2023-01-12T06:26:14.194Z,100042.59
2023-01-12T06:28:42.937Z,100047.63
2023-01-12T06:31:11.823Z,100046.59
2023-01-12T06:33:38.401Z,100056.56
2023-01-12T06:36:05.523Z,100058.06
2023-01-12T06:38:33.692Z,100064.13
2023-01-12T06:41:03.770Z,100078.22
2023-01-12T06:43:30.711Z,100087.66
2023-01-12T06:45:57.357Z,100084.28
2023-01-12T06:48:25.907Z,100089.34
2023-01-12T06:51:02.238Z,100095.06
2023-01-12T06:53:28.685Z,100083.28
2023-01-12T06:55:55.079Z,100100.94
2023-01-12T06:58:21.514Z,100099.44
2023-01-12T07:00:47.953Z,100101.09
2023-01-12T07:03:19.237Z,100088.00
2023-01-12T07:05:45.775Z,100102.81
2023-01-12T07:08:15.873Z,100105.84
2023-01-12T07:10:43.115Z,100112.06
2023-01-12T07:13:09.841Z,100104.84
2023-01-12T07:15:36.903Z,100102.97
2023-01-12T07:18:03.574Z,100101.97
2023-01-12T07:20:30.389Z,100108.00
2023-01-12T07:22:56.914Z,100099.59
2023-01-12T07:25:25.182Z,100108.53
2023-01-12T07:27:53.451Z,100109.38
2023-01-12T07:30:21.777Z,100110.03
2023-01-12T07:32:49.247Z,100120.47
2023-01-12T07:35:16.877Z,100125.53
2023-01-12T07:37:54.017Z,100125.34
2023-01-12T07:40:20.780Z,100130.72
2023-01-12T07:42:47.540Z,100139.00
2023-01-12T07:45:14.236Z,100135.44
2023-01-12T07:47:40.988Z,100155.97
2023-01-12T07:50:08.034Z,100125.84
2023-01-12T07:52:34.942Z,100146.38
2023-01-12T07:55:01.565Z,100155.31
2023-01-12T07:57:29.534Z,100146.38
2023-01-12T07:59:56.135Z,100158.00
2023-01-12T08:02:22.853Z,100164.75
2023-01-12T08:04:49.490Z,100151.09
2023-01-12T08:07:16.053Z,100160.03
2023-01-12T08:09:42.680Z,100170.63
2023-01-12T08:12:09.437Z,100161.34
2023-01-12T08:14:38.660Z,100170.28
2023-01-12T08:17:35.403Z,100186.13
2023-01-12T08:20:08.765Z,100180.41
2023-01-12T08:22:40.064Z,100178.03
2023-01-12T08:25:12.684Z,100200.25
2023-01-12T08:27:43.801Z,100186.59
2023-01-12T08:30:14.285Z,100192.84
2023-01-12T08:32:41.335Z,100185.59
2023-01-12T08:35:08.868Z,100202.44
2023-01-12T08:37:35.760Z,100199.91
2023-01-12T08:40:04.746Z,100200.59
2023-01-12T08:42:31.928Z,100196.72
2023-01-12T08:44:58.699Z,100196.03
2023-01-12T08:47:30.367Z,100186.97
2023-01-12T08:49:59.343Z,100186.97
2023-01-12T08:52:29.348Z,100200.25
2023-01-12T08:54:56.309Z,100212.88
2023-01-12T08:57:23.028Z,100197.56
2023-01-12T08:59:49.667Z,100206.31
2023-01-12T09:02:16.712Z,100211.38
2023-01-12T09:04:43.458Z,100213.06
2023-01-12T09:07:11.412Z,100215.56
2023-01-12T09:09:38.613Z,100224.50
2023-01-12T09:12:05.978Z,100223.31
2023-01-12T09:14:38.484Z,100222.31
2023-01-12T09:17:06.925Z,100230.41
2023-01-12T09:19:33.429Z,100227.19
2023-01-12T09:21:59.925Z,100230.88
2023-01-12T09:24:26.734Z,100233.25
2023-01-12T09:26:53.220Z,100247.91
2023-01-12T09:29:19.688Z,100237.13
2023-01-12T09:31:46.380Z,100238.44
2023-01-12T09:34:13.080Z,100236.44
2023-01-12T09:36:40.347Z,100247.25
2023-01-12T09:39:12.799Z,100252.97
2023-01-12T09:42:06.623Z,100255.28
2023-01-12T09:45:01.513Z,100254.28
2023-01-12T09:47:52.689Z,100256.31
2023-01-12T09:50:23.875Z,100255.66
2023-01-12T09:53:01.269Z,100267.09
2023-01-12T09:55:36.791Z,100274.34
2023-01-12T09:58:48.476Z,100271.47
2023-01-12T10:01:28.675Z,100276.84
2023-01-12T10:03:56.581Z,100281.25
2023-01-12T10:06:23.050Z,100274.66
2023-01-12T10:08:54.955Z,100278.03
2023-01-12T10:11:33.412Z,100266.25
2023-01-12T10:14:24.484Z,100280.22
2023-01-12T10:17:05.988Z,100272.28
2023-01-12T10:19:50.865Z,100287.28
2023-01-12T10:22:39.780Z,100286.09
2023-01-12T10:25:21.967Z,100290.66
2023-01-12T10:27:50.793Z,100289.13
2023-01-12T10:30:37.673Z,100296.22
2023-01-12T10:33:20.932Z,100290.16
2023-01-12T10:35:54.612Z,100295.19
2023-01-12T10:38:31.353Z,100304.66
2023-01-12T10:41:04.024Z,100300.94
2023-01-12T10:43:34.230Z,100297.41
2023-01-12T10:46:10.202Z,100293.34
2023-01-12T10:48:43.236Z,100288.78
2023-01-12T10:51:29.549Z,100291.31
2023-01-12T10:54:02.978Z,100293.84
2023-01-12T10:56:41.539Z,100282.72
2023-01-12T10:59:13.869Z,100296.03
2023-01-12T11:02:03.470Z,100296.03
2023-01-12T11:04:30.712Z,100298.56
2023-01-12T11:07:05.250Z,100289.78
2023-01-12T11:09:32.218Z,100287.78
2023-01-12T11:12:02.031Z,100292.66
2023-01-12T11:14:34.280Z,100297.84
2023-01-12T11:17:29.948Z,100299.03
2023-01-12T11:20:00.641Z,100296.66
2023-01-12T11:22:37.247Z,100280.47
2023-01-12T11:25:13.410Z,100271.53
2023-01-12T11:27:47.189Z,100284.22
2023-01-12T11:30:23.556Z,100275.41
2023-01-12T11:33:04.387Z,100286.22
2023-01-12T11:35:40.677Z,100276.63
2023-01-12T11:38:15.682Z,100271.22
2023-01-12T11:40:44.231Z,100276.63
2023-01-12T11:43:32.367Z,100273.91
2023-01-12T11:46:07.751Z,100277.31
2023-01-12T11:48:53.057Z,100280.00
2023-01-12T11:51:19.699Z,100264.63
2023-01-12T11:53:46.588Z,100267.31
2023-01-12T11:56:24.454Z,100254.88
2023-01-12T11:59:33.502Z,100258.03
2023-01-12T12:02:27.548Z,100265.13
2023-01-12T12:05:06.545Z,100266.84
2023-01-12T12:07:51.356Z,100256.03
2023-01-12T12:10:25.537Z,100252.66
2023-01-12T12:13:24.600Z,100261.59
2023-01-12T12:16:19.334Z,100251.66
2023-01-12T12:19:07.209Z,100253.34
2023-01-12T12:21:46.760Z,100252.31
2023-01-12T12:24:22.033Z,100246.91
2023-01-12T12:26:57.205Z,100242.69
2023-01-12T12:29:51.892Z,100239.84
2023-01-12T12:33:00.860Z,100241.69
2023-01-12T12:35:41.677Z,100230.91
2023-01-12T12:38:22.723Z,100241.50
2023-01-12T12:41:25.995Z,100221.31
2023-01-12T12:44:33.746Z,100227.34
2023-01-12T12:47:00.213Z,100222.81
2023-01-12T12:49:32.768Z,100224.50
2023-01-12T12:52:01.229Z,100227.00
2023-01-12T12:54:29.040Z,100228.38
2023-01-12T12:56:56.575Z,100226.50
2023-01-12T12:59:32.211Z,100211.16
2023-01-12T13:02:01.116Z,100214.06
2023-01-12T13:04:42.717Z,100216.06
2023-01-12T13:07:15.453Z,100215.25
2023-01-12T13:09:43.679Z,100198.03
2023-01-12T13:12:20.486Z,100204.44
2023-01-12T13:15:18.346Z,100211.50
2023-01-12T13:17:46.249Z,100199.56
2023-01-12T13:20:24.520Z,100209.16
2023-01-12T13:22:52.171Z,100213.03
2023-01-12T13:25:26.413Z,100203.09
2023-01-12T13:28:10.058Z,100211.38
2023-01-12T13:42:57.694Z,100184.72
2023-01-12T13:45:24.806Z,100163.47
2023-01-12T13:47:53.452Z,100184.22
2023-01-12T13:50:22.843Z,100176.31
2023-01-12T13:53:00.364Z,100175.47
2023-01-12T13:55:29.861Z,100189.81
2023-01-12T13:58:21.414Z,100186.44
2023-01-12T14:00:55.564Z,100191.16
2023-01-12T14:03:35.173Z,100194.03
2023-01-12T14:06:27.559Z,100192.53
2023-01-12T14:09:14.234Z,100186.47
2023-01-12T14:11:58.839Z,100182.06
2023-01-12T14:15:08.342Z,100193.22
2023-01-12T14:17:49.951Z,100181.41
2023-01-12T14:20:28.210Z,100188.16
2023-01-12T14:23:16.517Z,100187.34
2023-01-12T14:25:43.577Z,100178.41
2023-01-12T14:28:36.843Z,100179.25
2023-01-12T14:31:05.995Z,100166.78
2023-01-12T14:33:34.907Z,100166.78
2023-01-12T14:36:13.704Z,100171.31
2023-01-12T14:38:42.835Z,100177.06
2023-01-12T14:41:36.821Z,100159.88
2023-01-12T14:44:22.317Z,100158.69
2023-01-12T14:46:51.823Z,100145.53
2023-01-12T14:49:28.568Z,100158.16
2023-01-12T14:51:57.721Z,100167.09
2023-01-12T14:54:29.214Z,100158.69
2023-01-12T14:57:02.819Z,100155.13
2023-01-12T14:59:32.888Z,100146.19
2023-01-12T15:02:18.988Z,100148.88
2023-01-12T15:05:03.810Z,100148.53
2023-01-12T15:07:35.582Z,100145.84
2023-01-12T15:10:24.861Z,100146.03
2023-01-12T15:12:54.368Z,100134.22
2023-01-12T15:15:48.297Z,100158.34
2023-01-12T15:18:33.961Z,100143.34
2023-01-12T15:21:19.708Z,100131.53
2023-01-12T15:24:05.778Z,100143.19
2023-01-12T15:26:32.198Z,100136.13
2023-01-12T15:28:58.582Z,100144.22
2023-01-12T15:31:28.420Z,100140.66
2023-01-12T15:33:56.470Z,100152.47
2023-01-12T15:36:24.729Z,100144.03
2023-01-12T15:38:51.672Z,100145.03
2023-01-12T15:41:43.029Z,100132.38
2023-01-12T15:44:14.541Z,100152.31
2023-01-12T15:46:41.686Z,100133.44
2023-01-12T15:49:09.219Z,100142.34
2023-01-12T15:51:36.103Z,100135.09
2023-01-12T15:54:04.124Z,100138.63
2023-01-12T15:56:30.559Z,100125.16
2023-01-12T15:58:57.839Z,100134.94
2023-01-12T16:01:32.596Z,100130.53
2023-01-12T16:04:35.582Z,100128.03
2023-01-12T16:06:45.760Z,100130.72
2023-01-12T16:09:12.325Z,100141.31
2023-01-12T16:11:38.898Z,100127.84
2023-01-12T16:14:05.541Z,100130.03
2023-01-12T16:16:32.099Z,100136.13
2023-01-12T16:18:59.903Z,100131.53
2023-01-12T16:21:28.650Z,100130.72
2023-01-12T16:23:57.771Z,100138.81
2023-01-12T16:26:26.083Z,100134.25
2023-01-12T16:28:53.146Z,100137.78
2023-01-12T16:31:20.278Z,100138.28
2023-01-12T16:33:47.277Z,100131.72
2023-01-12T16:36:15.162Z,100133.56
2023-01-12T16:38:41.694Z,100135.41
2023-01-12T16:41:10.897Z,100145.38
2023-01-12T16:43:38.183Z,100145.38
2023-01-12T16:46:05.784Z,100142.00
2023-01-12T16:48:35.107Z,100136.25
2023-01-12T16:51:01.605Z,100136.78
2023-01-12T16:53:28.087Z,100148.22
2023-01-12T16:55:54.526Z,100149.94
2023-01-12T16:58:20.964Z,100137.09
2023-01-12T17:00:47.521Z,100130.00
2023-01-12T17:03:14.169Z,100136.25
2023-01-12T17:05:42.003Z,100127.31
2023-01-12T17:08:08.986Z,100133.41
2023-01-12T17:10:36.480Z,100139.97
2023-01-12T17:13:03.070Z,100151.59
2023-01-12T17:15:30.169Z,100143.34
2023-01-12T17:17:57.031Z,100136.44
2023-01-12T17:20:23.769Z,100114.69
2023-01-12T17:22:50.657Z,100132.38
2023-01-12T17:25:17.538Z,100141.31
2023-01-12T17:27:44.134Z,100143.81
2023-01-12T17:30:11.392Z,100145.84
2023-01-12T17:32:38.008Z,100129.84
2023-01-12T17:35:07.851Z,100130.34
2023-01-12T17:37:34.336Z,100134.75
2023-01-12T17:40:00.806Z,100137.09
2023-01-12T17:42:45.453Z,100134.94
2023-01-12T17:45:12.131Z,100133.44
2023-01-12T17:47:38.571Z,100148.75
2023-01-12T17:50:05.477Z,100136.94
2023-01-12T17:52:31.919Z,100133.44
2023-01-12T17:54:58.436Z,100127.00
2023-01-12T17:57:24.942Z,100124.16
2023-01-12T17:59:51.595Z,100132.38
2023-01-12T18:02:18.329Z,100124.16
2023-01-12T18:04:44.825Z,100136.78
2023-01-12T18:07:11.272Z,100144.34
2023-01-12T18:09:37.788Z,100135.06
2023-01-12T18:12:05.221Z,100136.09
2023-01-12T18:14:31.819Z,100136.25
2023-01-12T18:16:58.289Z,100135.06
2023-01-12T18:19:24.824Z,100140.44
2023-01-12T18:21:51.291Z,100145.69
2023-01-12T18:24:17.810Z,100146.34
2023-01-12T18:26:44.442Z,100148.19
2023-01-12T18:29:10.965Z,100132.03
2023-01-12T18:31:37.609Z,100129.31
2023-01-12T18:34:05.706Z,100133.53
2023-01-12T18:36:34.781Z,100132.69
2023-01-12T18:39:01.466Z,100138.06
2023-01-12T18:41:46.604Z,100124.59
2023-01-12T18:44:13.241Z,100121.22
2023-01-12T18:47:01.089Z,100124.78
2023-01-12T18:49:30.443Z,100123.72
2023-01-12T18:52:16.049Z,100116.03
2023-01-12T18:54:47.576Z,100115.00
2023-01-12T18:57:19.376Z,100114.84
2023-01-12T18:59:50.870Z,100130.81
2023-01-12T19:02:18.886Z,100114.63
2023-01-12T19:04:50.863Z,100106.75
2023-01-12T19:07:28.344Z,100103.84
2023-01-12T19:09:55.284Z,100103.84
2023-01-12T19:12:21.857Z,100102.16
2023-01-12T19:15:06.681Z,100113.78
2023-01-12T19:17:33.412Z,100115.84
2023-01-12T19:20:02.089Z,100108.41
2023-01-12T19:22:47.073Z,100115.00
2023-01-12T19:25:37.632Z,100127.94
2023-01-12T19:28:23.729Z,100115.94
2023-01-12T19:30:50.601Z,100111.75
2023-01-12T19:33:17.561Z,100113.63
2023-01-12T19:35:45.916Z,100113.25
2023-01-12T19:38:14.429Z,100098.28
2023-01-12T19:40:48.601Z,100108.06
2023-01-12T19:43:20.926Z,100095.09
2023-01-12T19:45:55.110Z,100090.72
2023-01-12T19:48:24.390Z,100088.31
2023-01-12T19:50:51.819Z,100092.88
2023-01-12T19:53:23.769Z,100093.91
2023-01-12T19:55:50.981Z,100072.31
2023-01-12T19:58:20.786Z,100072.31
2023-01-12T20:00:49.747Z,100074.00
2023-01-12T20:03:18.334Z,100077.06
2023-01-12T20:05:50.948Z,100083.66
2023-01-12T20:08:23.582Z,100082.31
2023-01-12T20:10:58.392Z,100066.13
2023-01-12T20:13:25.833Z,100067.97
2023-01-12T20:15:53.076Z,100062.22
2023-01-12T20:18:20.211Z,100058.38
2023-01-12T20:20:46.793Z,100051.31
2023-01-12T20:23:14.912Z,100049.13
2023-01-12T20:25:42.704Z,100039.84
2023-01-12T20:28:13.087Z,100047.13
2023-01-12T20:30:40.856Z,100061.78
2023-01-12T20:33:07.748Z,100064.28
2023-01-12T20:35:35.476Z,100051.63
2023-01-12T20:38:04.087Z,100049.09
2023-01-12T20:40:30.524Z,100074.88
2023-01-12T20:42:56.959Z,100040.84
2023-01-12T20:45:23.408Z,100046.41
2023-01-12T20:47:49.877Z,100032.09
2023-01-12T20:50:18.729Z,100040.00
2023-01-12T20:52:48.025Z,100030.91
2023-01-12T20:55:14.584Z,100030.72
2023-01-12T20:57:41.008Z,100019.75
2023-01-12T21:00:09.042Z,100025.97
2023-01-12T21:02:35.945Z,100028.31
2023-01-12T21:05:03.033Z,100028.31
2023-01-12T21:07:29.535Z,100037.91
2023-01-12T21:09:56.087Z,100010.75
2023-01-12T21:12:22.661Z,100019.03
2023-01-12T21:14:49.338Z,100011.13
2023-01-12T21:17:16.947Z,100013.53
2023-01-12T21:19:43.808Z,100000.81
2023-01-12T21:22:10.370Z,100011.94
2023-01-12T21:24:36.904Z,100003.41
2023-01-12T21:27:04.107Z,100014.03
2023-01-12T21:29:30.639Z,100008.34
2023-01-12T21:31:57.170Z,100005.78
2023-01-12T21:34:23.992Z,100009.34
2023-01-12T21:36:50.486Z,100018.06
2023-01-12T21:39:17.024Z,100032.88
2023-01-12T21:42:02.327Z,100026.63
2023-01-12T21:44:28.752Z,100009.78
2023-01-12T21:46:55.589Z,100021.44
2023-01-12T21:49:22.007Z,100033.91
2023-01-12T21:51:48.533Z,100043.00
2023-01-12T21:54:14.933Z,100039.81
2023-01-12T21:56:41.390Z,100047.56
2023-01-12T21:59:07.830Z,100058.34
2023-01-12T22:01:34.412Z,100067.16
2023-01-12T22:04:00.959Z,100067.81
2023-01-12T22:06:27.508Z,100046.72
2023-01-12T22:08:53.946Z,100051.44
2023-01-12T22:11:20.359Z,100050.78
2023-01-12T22:13:46.914Z,100056.72
2023-01-12T22:16:15.688Z,100037.50
2023-01-12T22:18:49.253Z,100055.19
2023-01-12T22:21:17.147Z,100056.53
2023-01-12T22:23:43.978Z,100069.47
2023-01-12T22:26:12.903Z,100060.38
2023-01-12T22:28:42.104Z,100064.97
2023-01-12T22:31:18.990Z,100066.28
2023-01-12T22:34:03.893Z,100063.13
2023-01-12T22:36:34.727Z,100053.69
2023-01-12T22:39:01.386Z,100059.56
2023-01-12T22:41:27.818Z,100055.72
2023-01-12T22:43:54.945Z,100052.56
2023-01-12T22:46:26.576Z,100045.78
2023-01-12T22:48:57.839Z,100030.66
2023-01-12T22:51:26.127Z,100049.03
2023-01-12T22:53:53.821Z,100040.22
2023-01-12T22:56:20.320Z,100050.19
2023-01-12T22:58:48.999Z,100053.88
2023-01-12T23:01:16.727Z,100055.06
2023-01-12T23:03:43.555Z,100058.59
2023-01-12T23:06:14.929Z,100065.31
2023-01-12T23:08:42.982Z,100056.75
2023-01-12T23:11:15.050Z,100057.09
2023-01-12T23:13:43.237Z,100067.72
2023-01-12T23:16:11.486Z,100061.66
2023-01-12T23:18:39.992Z,100072.31
2023-01-12T23:21:14.192Z,100067.94
2023-01-12T23:23:43.313Z,100067.25
2023-01-12T23:26:11.771Z,100068.28
2023-01-12T23:28:41.430Z,100062.22
2023-01-12T23:31:10.622Z,100058.53
2023-01-12T23:33:38.021Z,100064.91
2023-01-12T23:36:06.774Z,100057.50
2023-01-12T23:38:33.620Z,100072.38
2023-01-12T23:41:00.142Z,100075.59
2023-01-12T23:43:27.771Z,100056.34
2023-01-12T23:45:54.282Z,100071.03
2023-01-12T23:48:22.593Z,100062.63
2023-01-12T23:50:49.102Z,100061.63
2023-01-12T23:53:15.568Z,100064.53
2023-01-12T23:55:41.997Z,100058.97
2023-01-12T23:58:08.721Z,100066.59
